Time;durP1;ratioP1;P1;durP2;ratioP2;P2;SDS_P1;SDS_P2;PMS_P1;PMS_P2;Temp;Humidity;BMP_temperature;BMP_pressure;BME280_temperature;BME280_humidity;BME280_pressure;Samples;Min_cycle;Max_cycle;Signal;HPM_P1;HPM_P2
2021/09/14 00:01:53;;;;;;;0.10;0.10;;;;;;;;;;5011876;28;20069;-89
2021/09/14 00:04:19;;;;;;;0.10;0.10;;;;;;;;;;5011539;28;20053;-89
2021/09/14 00:06:45;;;;;;;0.10;0.10;;;;;;;;;;5011744;28;20216;-89
2021/09/14 00:09:11;;;;;;;0.10;0.10;;;;;;;;;;5012252;28;20052;-89
2021/09/14 00:11:39;;;;;;;0.10;0.10;;;;;;;;;;5011871;28;20060;-90
2021/09/14 00:14:05;;;;;;;0.10;0.10;;;;;;;;;;5011847;28;20445;-89
2021/09/14 00:16:31;;;;;;;0.10;0.10;;;;;;;;;;5011727;28;20042;-90
2021/09/14 00:18:57;;;;;;;0.10;0.10;;;;;;;;;;5011639;28;20041;-90
2021/09/14 00:21:23;;;;;;;0.10;0.10;;;;;;;;;;5027988;28;20251;-89
2021/09/14 00:23:49;;;;;;;0.10;0.10;;;;;;;;;;5011743;28;20103;-89
2021/09/14 00:26:15;;;;;;;0.10;0.10;;;;;;;;;;5011379;28;20042;-88
2021/09/14 00:28:41;;;;;;;0.10;0.10;;;;;;;;;;5011940;28;20042;-89
2021/09/14 00:31:07;;;;;;;0.10;0.10;;;;;;;;;;5011308;28;20038;-89
2021/09/14 00:33:33;;;;;;;0.10;0.10;;;;;;;;;;5011282;28;20041;-89
2021/09/14 00:35:59;;;;;;;0.10;0.10;;;;;;;;;;5011320;28;20061;-89
2021/09/14 00:38:25;;;;;;;0.10;0.10;;;;;;;;;;5027662;28;20038;-89
2021/09/14 00:40:51;;;;;;;0.10;0.10;;;;;;;;;;5012363;28;20485;-88
2021/09/14 00:43:20;;;;;;;0.10;0.10;;;;;;;;;;5011382;28;20044;-90
2021/09/14 00:45:46;;;;;;;0.10;0.10;;;;;;;;;;5011529;28;20517;-91
2021/09/14 00:48:12;;;;;;;0.10;0.10;;;;;;;;;;5011649;28;20126;-90
2021/09/14 00:50:38;;;;;;;0.10;0.10;;;;;;;;;;5011412;28;20121;-90
2021/09/14 00:53:04;;;;;;;0.10;0.10;;;;;;;;;;5011417;28;20049;-90
2021/09/14 00:55:30;;;;;;;0.10;0.10;;;;;;;;;;5010868;28;20103;-90
2021/09/14 00:57:56;;;;;;;0.10;0.10;;;;;;;;;;5027869;28;20034;-91
2021/09/14 01:00:22;;;;;;;0.10;0.10;;;;;;;;;;5027808;28;20042;-91
2021/09/14 01:02:49;;;;;;;0.10;0.10;;;;;;;;;;5011436;28;20131;-91
2021/09/14 01:05:15;;;;;;;0.10;0.10;;;;;;;;;;5011732;28;20053;-91
2021/09/14 01:07:41;;;;;;;0.10;0.10;;;;;;;;;;5011427;28;20037;-91
2021/09/14 01:10:07;;;;;;;0.10;0.10;;;;;;;;;;5011329;28;20038;-90
2021/09/14 01:12:34;;;;;;;0.10;0.10;;;;;;;;;;5011163;28;20034;-90
2021/09/14 01:15:00;;;;;;;0.10;0.10;;;;;;;;;;5010912;28;20048;-90
2021/09/14 01:17:26;;;;;;;0.20;0.20;;;;;;;;;;5010950;28;20046;-90
2021/09/14 01:19:52;;;;;;;0.10;0.10;;;;;;;;;;5011457;28;20065;-90
2021/09/14 01:22:17;;;;;;;0.22;0.22;;;;;;;;;;5010998;28;20448;-91
2021/09/14 01:24:43;;;;;;;0.10;0.10;;;;;;;;;;5011054;28;20034;-90
2021/09/14 01:27:09;;;;;;;0.10;0.10;;;;;;;;;;5011074;28;20046;-91
2021/09/14 01:32:20;;;;;;;0.10;0.10;;;;;;;;;;5011037;28;20084;-89
2021/09/14 01:34:46;;;;;;;0.10;0.10;;;;;;;;;;5011219;28;20041;-90
2021/09/14 01:37:12;;;;;;;0.10;0.10;;;;;;;;;;5027402;28;20056;-90
2021/09/14 01:39:38;;;;;;;0.10;0.10;;;;;;;;;;5011305;28;20056;-91
2021/09/14 01:42:04;;;;;;;0.10;0.10;;;;;;;;;;5011007;28;20101;-91
2021/09/14 01:44:29;;;;;;;0.10;0.10;;;;;;;;;;5010996;28;20041;-91
2021/09/14 01:46:55;;;;;;;0.10;0.10;;;;;;;;;;5014359;28;20486;-90
2021/09/14 01:49:21;;;;;;;0.10;0.10;;;;;;;;;;5031175;28;20072;-90
2021/09/14 01:51:47;;;;;;;0.10;0.10;;;;;;;;;;5015131;28;20046;-90
2021/09/14 01:54:13;;;;;;;0.10;0.10;;;;;;;;;;5014479;28;20049;-90
2021/09/14 01:56:39;;;;;;;0.10;0.10;;;;;;;;;;5014065;28;20543;-88
2021/09/14 01:59:06;;;;;;;0.10;0.10;;;;;;;;;;5014498;28;20172;-90
2021/09/14 02:01:36;;;;;;;0.10;0.10;;;;;;;;;;5014164;28;20117;-90
2021/09/14 02:33:59;;;;;;;0.10;0.10;;;;;;;;;;5030310;28;20485;-89
2021/09/14 02:42:20;;;;;;;0.10;0.10;;;;;;;;;;5014118;28;20046;-91
2021/09/14 03:01:02;;;;;;;0.10;0.10;;;;;;;;;;5013313;28;20132;-90
2021/09/14 03:03:28;;;;;;;0.10;0.10;;;;;;;;;;5012732;28;20123;-90
2021/09/14 03:05:54;;;;;;;0.10;0.10;;;;;;;;;;5029907;28;20042;-90
2021/09/14 03:08:20;;;;;;;0.10;0.10;;;;;;;;;;5013294;28;20057;-89
2021/09/14 03:10:46;;;;;;;0.10;0.10;;;;;;;;;;5013187;28;20137;-91
2021/09/14 03:13:12;;;;;;;0.10;0.10;;;;;;;;;;5029597;28;20050;-90
2021/09/14 03:15:38;;;;;;;0.10;0.10;;;;;;;;;;5029969;28;20061;-90
2021/09/14 03:18:04;;;;;;;0.10;0.10;;;;;;;;;;5013795;28;20038;-91
2021/09/14 03:20:30;;;;;;;0.20;0.20;;;;;;;;;;5013893;28;20036;-92
2021/09/14 03:22:56;;;;;;;0.10;0.10;;;;;;;;;;5014290;28;20084;-91
2021/09/14 03:25:22;;;;;;;0.28;0.28;;;;;;;;;;5014226;28;20401;-90
2021/09/14 03:27:48;;;;;;;0.10;0.10;;;;;;;;;;5013929;28;20573;-92
2021/09/14 03:30:14;;;;;;;0.10;0.10;;;;;;;;;;5030538;28;20397;-92
2021/09/14 03:32:40;;;;;;;0.10;0.10;;;;;;;;;;5012946;28;20118;-90
2021/09/14 03:35:06;;;;;;;0.10;0.10;;;;;;;;;;5012545;28;20046;-91
2021/09/14 03:37:32;;;;;;;0.10;0.10;;;;;;;;;;5012713;28;20045;-90
2021/09/14 03:39:58;;;;;;;0.10;0.10;;;;;;;;;;5012930;28;20124;-89
2021/09/14 03:45:00;;;;;;;0.10;0.10;;;;;;;;;;5173856;23;20188;-90
2021/09/14 03:47:26;;;;;;;0.10;0.10;;;;;;;;;;5012761;28;20515;-89
2021/09/14 03:49:52;;;;;;;0.10;0.10;;;;;;;;;;5012767;28;20084;-91
2021/09/14 03:52:18;;;;;;;0.10;0.10;;;;;;;;;;4997377;28;20080;-91
2021/09/14 03:54:44;;;;;;;0.10;0.10;;;;;;;;;;4997331;28;20092;-90
2021/09/14 03:57:10;;;;;;;0.10;0.10;;;;;;;;;;5013372;28;20042;-92
2021/09/14 03:59:40;;;;;;;0.10;0.10;;;;;;;;;;5013473;28;20045;-91
2021/09/14 04:02:13;;;;;;;0.10;0.10;;;;;;;;;;4981178;28;20034;-91
2021/09/14 04:05:01;;;;;;;0.10;0.10;;;;;;;;;;5012909;28;20037;-90
2021/09/14 04:10:12;;;;;;;0.10;0.10;;;;;;;;;;5015475;28;20054;-90
2021/09/14 04:12:38;;;;;;;0.10;0.10;;;;;;;;;;5011983;28;20112;-91
2021/09/14 04:15:04;;;;;;;0.10;0.10;;;;;;;;;;4980151;28;20042;-91
2021/09/14 04:17:31;;;;;;;0.10;0.10;;;;;;;;;;4997138;28;20351;-92
2021/09/14 04:19:57;;;;;;;0.20;0.20;;;;;;;;;;4997063;28;20038;-92
2021/09/14 04:22:23;;;;;;;0.10;0.10;;;;;;;;;;4997226;28;20038;-91
2021/09/14 04:24:49;;;;;;;0.10;0.10;;;;;;;;;;4980064;28;20042;-90
2021/09/14 04:27:15;;;;;;;0.10;0.10;;;;;;;;;;5012724;28;20080;-91
2021/09/14 04:29:41;;;;;;;0.10;0.10;;;;;;;;;;5011614;28;20498;-89
2021/09/14 04:32:07;;;;;;;0.10;0.10;;;;;;;;;;4979217;28;20409;-89
2021/09/14 04:34:33;;;;;;;0.20;0.20;;;;;;;;;;4995404;28;20042;-89
2021/09/14 04:36:59;;;;;;;0.10;0.10;;;;;;;;;;4995409;28;20081;-90
2021/09/14 04:39:25;;;;;;;0.10;0.10;;;;;;;;;;4996110;28;20099;-90
2021/09/14 04:41:51;;;;;;;0.10;0.10;;;;;;;;;;4995954;28;20041;-89
2021/09/14 04:44:18;;;;;;;0.10;0.10;;;;;;;;;;4978972;28;20061;-89
2021/09/14 04:46:44;;;;;;;0.10;0.10;;;;;;;;;;4995469;28;20045;-89
2021/09/14 04:49:10;;;;;;;0.10;0.10;;;;;;;;;;4978956;28;20045;-89
2021/09/14 04:51:36;;;;;;;0.10;0.10;;;;;;;;;;4995268;28;20100;-89
2021/09/14 04:54:02;;;;;;;0.10;0.10;;;;;;;;;;5011157;28;20065;-88
2021/09/14 04:56:28;;;;;;;0.10;0.10;;;;;;;;;;4994955;28;20038;-89
2021/09/14 04:58:54;;;;;;;0.10;0.10;;;;;;;;;;4994590;28;20038;-89
2021/09/14 05:01:20;;;;;;;0.10;0.10;;;;;;;;;;5010913;28;20042;-89
2021/09/14 05:03:47;;;;;;;0.10;0.10;;;;;;;;;;4994796;28;20048;-88
2021/09/14 05:06:13;;;;;;;0.10;0.10;;;;;;;;;;4995031;28;20406;-89
2021/09/14 05:08:39;;;;;;;0.10;0.10;;;;;;;;;;4994448;28;20045;-89
2021/09/14 05:11:05;;;;;;;0.10;0.10;;;;;;;;;;4978753;28;20108;-89
2021/09/14 05:13:31;;;;;;;0.20;0.20;;;;;;;;;;4978560;28;20133;-89
2021/09/14 05:16:00;;;;;;;0.10;0.10;;;;;;;;;;5012267;28;20072;-91
2021/09/14 05:18:27;;;;;;;0.10;0.10;;;;;;;;;;4979377;28;20109;-91
2021/09/14 05:20:55;;;;;;;0.10;0.10;;;;;;;;;;4997223;28;20064;-91
2021/09/14 05:23:30;;;;;;;0.10;0.10;;;;;;;;;;5015479;28;20056;-89
2021/09/14 05:25:56;;;;;;;0.10;0.10;;;;;;;;;;5015457;28;20051;-90
2021/09/14 05:28:22;;;;;;;0.10;0.10;;;;;;;;;;4999152;28;20401;-90
2021/09/14 05:30:48;;;;;;;0.10;0.10;;;;;;;;;;4999008;28;20095;-92
2021/09/14 05:33:14;;;;;;;0.10;0.10;;;;;;;;;;4999303;28;20042;-91
2021/09/14 05:35:50;;;;;;;0.10;0.10;;;;;;;;;;4999067;28;20049;-90
2021/09/14 05:38:16;;;;;;;0.10;0.10;;;;;;;;;;4999178;28;20343;-92
2021/09/14 05:40:43;;;;;;;0.10;0.10;;;;;;;;;;4998970;28;20053;-91
2021/09/14 05:43:09;;;;;;;0.10;0.10;;;;;;;;;;4982740;28;20033;-92
2021/09/14 05:45:34;;;;;;;0.10;0.10;;;;;;;;;;5031958;28;20092;-93
2021/09/14 05:48:00;;;;;;;0.10;0.10;;;;;;;;;;4982624;28;20398;-90
2021/09/14 05:50:26;;;;;;;0.10;0.10;;;;;;;;;;4982280;28;20045;-90
2021/09/14 05:52:52;;;;;;;0.20;0.20;;;;;;;;;;4998384;28;20428;-90
2021/09/14 05:55:18;;;;;;;0.10;0.10;;;;;;;;;;5014257;28;20131;-90
2021/09/14 05:57:44;;;;;;;0.20;0.20;;;;;;;;;;5014748;28;20361;-90
2021/09/14 06:00:11;;;;;;;0.10;0.10;;;;;;;;;;4998784;28;20120;-89
2021/09/14 06:02:37;;;;;;;0.10;0.10;;;;;;;;;;4998362;28;20473;-90
2021/09/14 06:05:04;;;;;;;0.10;0.10;;;;;;;;;;4998335;28;20049;-91
2021/09/14 06:07:30;;;;;;;0.10;0.10;;;;;;;;;;4998639;28;20049;-90
2021/09/14 06:09:56;;;;;;;0.10;0.10;;;;;;;;;;5014057;28;20046;-88
2021/09/14 06:12:22;;;;;;;0.10;0.10;;;;;;;;;;4997940;28;20463;-89
2021/09/14 06:14:48;;;;;;;0.10;0.10;;;;;;;;;;4997798;28;20041;-88
2021/09/14 06:17:14;;;;;;;0.30;0.30;;;;;;;;;;4997964;28;20124;-87
2021/09/14 06:19:40;;;;;;;0.30;0.30;;;;;;;;;;5013882;28;20041;-87
2021/09/14 06:22:06;;;;;;;0.10;0.10;;;;;;;;;;4981204;28;20050;-87
2021/09/14 06:24:32;;;;;;;0.10;0.10;;;;;;;;;;5013697;28;20448;-88
2021/09/14 06:26:58;;;;;;;0.10;0.10;;;;;;;;;;5013981;28;20425;-88
2021/09/14 06:29:24;;;;;;;0.10;0.10;;;;;;;;;;4997620;28;20063;-88
2021/09/14 06:31:50;;;;;;;0.20;0.20;;;;;;;;;;5013356;28;20046;-88
2021/09/14 06:34:15;;;;;;;0.10;0.10;;;;;;;;;;4997681;28;20063;-91
2021/09/14 06:36:41;;;;;;;0.13;0.13;;;;;;;;;;5014562;28;20042;-92
2021/09/14 06:39:07;;;;;;;0.10;0.10;;;;;;;;;;4998609;28;20046;-92
2021/09/14 06:41:33;;;;;;;0.10;0.10;;;;;;;;;;5014477;28;20104;-92
2021/09/14 06:43:59;;;;;;;0.20;0.20;;;;;;;;;;5014389;28;20054;-91
2021/09/14 06:46:25;;;;;;;0.10;0.10;;;;;;;;;;4997742;28;20354;-90
2021/09/14 06:48:52;;;;;;;0.10;0.10;;;;;;;;;;4998483;28;20037;-91
2021/09/14 06:51:18;;;;;;;0.10;0.10;;;;;;;;;;5013851;28;20092;-90
2021/09/14 06:53:45;;;;;;;0.10;0.10;;;;;;;;;;4998204;28;20053;-92
2021/09/14 06:56:11;;;;;;;0.32;0.32;;;;;;;;;;4997243;28;20041;-90
2021/09/14 06:58:37;;;;;;;2.00;0.30;;;;;;;;;;5013793;28;20044;-91
2021/09/14 07:01:03;;;;;;;0.10;0.10;;;;;;;;;;4981455;28;20084;-92
2021/09/14 07:03:29;;;;;;;0.10;0.10;;;;;;;;;;5013995;28;20053;-92
2021/09/14 07:05:56;;;;;;;0.10;0.10;;;;;;;;;;4997405;28;20042;-92
2021/09/14 07:08:22;;;;;;;0.10;0.10;;;;;;;;;;4997393;28;20099;-92
2021/09/14 07:10:48;;;;;;;0.10;0.10;;;;;;;;;;4997042;28;20046;-91
2021/09/14 07:13:14;;;;;;;0.10;0.10;;;;;;;;;;4980959;28;20046;-92
2021/09/14 07:15:43;;;;;;;0.10;0.10;;;;;;;;;;5013077;28;20048;-90
2021/09/14 07:18:09;;;;;;;0.20;0.20;;;;;;;;;;4996718;28;20121;-89
2021/09/14 07:20:35;;;;;;;0.10;0.10;;;;;;;;;;4980426;28;20042;-89
2021/09/14 07:23:01;;;;;;;0.20;0.20;;;;;;;;;;4980300;28;20034;-90
2021/09/14 07:25:27;;;;;;;0.10;0.10;;;;;;;;;;4980577;28;20409;-89
2021/09/14 07:27:53;;;;;;;0.10;0.10;;;;;;;;;;4980395;28;20073;-92
2021/09/14 07:30:19;;;;;;;0.10;0.10;;;;;;;;;;4981117;28;20488;-91
2021/09/14 07:32:45;;;;;;;0.10;0.10;;;;;;;;;;4980384;28;20124;-90
2021/09/14 07:35:11;;;;;;;0.10;0.10;;;;;;;;;;4996229;28;20375;-88
2021/09/14 07:37:38;;;;;;;0.15;0.15;;;;;;;;;;4996175;28;20061;-89
2021/09/14 07:40:05;;;;;;;0.10;0.10;;;;;;;;;;4996368;28;20498;-90
2021/09/14 07:42:32;;;;;;;0.20;0.20;;;;;;;;;;4996252;28;20377;-91
2021/09/14 07:44:58;;;;;;;0.10;0.10;;;;;;;;;;4979825;28;20133;-91
2021/09/14 07:47:24;;;;;;;0.10;0.10;;;;;;;;;;4980232;28;20192;-90
2021/09/14 07:49:50;;;;;;;0.10;0.10;;;;;;;;;;4980132;28;20049;-90
2021/09/14 07:52:16;;;;;;;0.10;0.10;;;;;;;;;;4996242;28;20053;-89
2021/09/14 07:54:42;;;;;;;0.20;0.20;;;;;;;;;;4996162;28;20429;-90
2021/09/14 07:57:08;;;;;;;0.10;0.10;;;;;;;;;;5012202;28;20042;-91
2021/09/14 07:59:34;;;;;;;0.10;0.10;;;;;;;;;;5012207;28;20038;-91
2021/09/14 08:02:00;;;;;;;0.10;0.10;;;;;;;;;;4996502;28;20448;-89
2021/09/14 08:04:26;;;;;;;0.20;0.20;;;;;;;;;;5011792;28;20042;-89
2021/09/14 08:06:52;;;;;;;0.10;0.10;;;;;;;;;;4996244;28;20088;-88
2021/09/14 08:09:18;;;;;;;0.20;0.20;;;;;;;;;;4980681;28;20042;-94
2021/09/14 08:11:44;;;;;;;0.10;0.10;;;;;;;;;;4995595;28;20045;-86
2021/09/14 08:14:10;;;;;;;0.10;0.10;;;;;;;;;;4995631;28;20092;-87
2021/09/14 08:16:36;;;;;;;0.10;0.10;;;;;;;;;;5011752;28;20140;-88
2021/09/14 08:19:02;;;;;;;0.20;0.20;;;;;;;;;;4979920;28;20049;-94
2021/09/14 08:21:28;;;;;;;0.10;0.10;;;;;;;;;;4995443;28;20041;-88
2021/09/14 08:23:54;;;;;;;0.20;0.20;;;;;;;;;;4995243;28;20104;-88
2021/09/14 08:26:20;;;;;;;0.20;0.20;;;;;;;;;;5011581;28;20485;-88
2021/09/14 08:28:46;;;;;;;0.30;0.20;;;;;;;;;;4995515;28;20049;-88
2021/09/14 08:31:12;;;;;;;0.10;0.10;;;;;;;;;;5011431;28;20137;-88
2021/09/14 08:33:38;;;;;;;0.20;0.20;;;;;;;;;;4995260;28;20045;-88
2021/09/14 08:36:04;;;;;;;0.20;0.20;;;;;;;;;;4994759;28;20121;-90
2021/09/14 08:38:30;;;;;;;0.10;0.10;;;;;;;;;;5011279;28;20061;-87
2021/09/14 08:40:56;;;;;;;0.10;0.10;;;;;;;;;;5011115;28;20060;-87
2021/09/14 08:43:22;;;;;;;0.10;0.10;;;;;;;;;;4978536;28;20060;-88
2021/09/14 08:45:48;;;;;;;0.10;0.10;;;;;;;;;;5010899;28;20082;-87
2021/09/14 08:48:16;;;;;;;0.10;0.10;;;;;;;;;;4995041;28;20042;-86
2021/09/14 08:50:42;;;;;;;0.10;0.10;;;;;;;;;;4979087;28;20034;-89
2021/09/14 08:53:08;;;;;;;0.20;0.20;;;;;;;;;;5011021;28;20476;-89
2021/09/14 08:55:37;;;;;;;0.10;0.10;;;;;;;;;;4993334;28;20057;-88
2021/09/14 08:58:09;;;;;;;0.20;0.20;;;;;;;;;;5010871;28;20064;-89
2021/09/14 09:00:38;;;;;;;0.10;0.10;;;;;;;;;;5010802;28;20046;-89
2021/09/14 09:03:05;;;;;;;0.10;0.10;;;;;;;;;;4978353;28;20049;-87
2021/09/14 09:05:35;;;;;;;0.10;0.10;;;;;;;;;;4994502;28;20041;-87
2021/09/14 09:08:01;;;;;;;0.20;0.20;;;;;;;;;;4994380;28;20037;-88
2021/09/14 09:10:28;;;;;;;0.10;0.10;;;;;;;;;;5011183;28;20045;-87
2021/09/14 09:12:54;;;;;;;0.13;0.13;;;;;;;;;;5010780;28;20042;-89
2021/09/14 09:15:24;;;;;;;0.10;0.10;;;;;;;;;;4994405;28;20049;-88
2021/09/14 09:18:19;;;;;;;0.10;0.10;;;;;;;;;;4978237;28;20052;-90
2021/09/14 09:20:47;;;;;;;0.10;0.10;;;;;;;;;;5002559;28;20050;-87
2021/09/14 09:23:25;;;;;;;0.10;0.10;;;;;;;;;;5010820;28;20041;-88
2021/09/14 09:25:51;;;;;;;0.20;0.20;;;;;;;;;;4994825;28;20046;-87
2021/09/14 09:28:21;;;;;;;0.10;0.10;;;;;;;;;;5010659;28;20053;-87
2021/09/14 09:30:55;;;;;;;0.20;0.20;;;;;;;;;;5010406;28;20042;-88
2021/09/14 09:33:28;;;;;;;0.20;0.20;;;;;;;;;;4994362;28;20053;-88
2021/09/14 09:36:00;;;;;;;0.10;0.10;;;;;;;;;;4994285;28;20038;-88
2021/09/14 09:38:27;;;;;;;0.20;0.20;;;;;;;;;;4994714;28;20511;-89
2021/09/14 09:40:53;;;;;;;0.20;0.20;;;;;;;;;;5010761;28;20069;-89
2021/09/14 09:43:26;;;;;;;0.20;0.20;;;;;;;;;;4994234;28;20089;-89
2021/09/14 09:45:52;;;;;;;0.30;0.30;;;;;;;;;;5010302;28;20132;-88
2021/09/14 09:48:18;;;;;;;0.10;0.10;;;;;;;;;;5010612;28;20122;-89
2021/09/14 09:50:44;;;;;;;0.10;0.10;;;;;;;;;;5010563;28;20049;-89
2021/09/14 09:53:10;;;;;;;0.20;0.20;;;;;;;;;;4994117;28;20045;-89
2021/09/14 09:55:36;;;;;;;0.10;0.10;;;;;;;;;;4978000;28;20041;-89
2021/09/14 09:58:04;;;;;;;0.20;0.20;;;;;;;;;;4994057;28;20045;-88
2021/09/14 10:00:31;;;;;;;0.10;0.10;;;;;;;;;;5010287;28;20038;-88
2021/09/14 10:03:01;;;;;;;0.10;0.10;;;;;;;;;;4978063;28;20072;-88
2021/09/14 10:05:28;;;;;;;0.20;0.20;;;;;;;;;;5010470;28;20394;-89
2021/09/14 10:07:55;;;;;;;0.10;0.10;;;;;;;;;;4997337;28;20039;-89
2021/09/14 10:10:21;;;;;;;0.10;0.10;;;;;;;;;;4997954;28;20361;-88
2021/09/14 10:12:46;;;;;;;0.10;0.10;;;;;;;;;;4998024;28;20041;-90
2021/09/14 10:15:13;;;;;;;0.10;0.10;;;;;;;;;;4998247;28;20526;-89
2021/09/14 10:17:47;;;;;;;0.30;0.30;;;;;;;;;;5015326;28;20497;-88
2021/09/14 10:20:13;;;;;;;0.10;0.10;;;;;;;;;;4998321;28;20033;-87
2021/09/14 10:22:39;;;;;;;0.10;0.10;;;;;;;;;;4999427;28;20052;-87
2021/09/14 10:25:06;;;;;;;0.10;0.10;;;;;;;;;;4998624;28;20410;-87
2021/09/14 10:27:41;;;;;;;0.10;0.10;;;;;;;;;;4998247;28;20073;-87
2021/09/14 10:30:08;;;;;;;0.20;0.20;;;;;;;;;;4997809;28;20436;-87
2021/09/14 10:32:41;;;;;;;0.10;0.10;;;;;;;;;;5013583;28;20099;-87
2021/09/14 10:35:08;;;;;;;0.10;0.10;;;;;;;;;;4997500;28;20064;-88
2021/09/14 10:37:36;;;;;;;0.10;0.10;;;;;;;;;;5014230;28;20472;-88
2021/09/14 10:40:15;;;;;;;0.10;0.10;;;;;;;;;;5013940;28;20056;-87
2021/09/14 10:42:45;;;;;;;0.10;0.10;;;;;;;;;;5013384;28;20038;-88
2021/09/14 10:45:14;;;;;;;0.10;0.10;;;;;;;;;;5012931;28;20132;-87
2021/09/14 10:47:41;;;;;;;0.10;0.10;;;;;;;;;;4980916;28;20136;-87
2021/09/14 10:50:07;;;;;;;0.17;0.17;;;;;;;;;;5013134;28;20437;-87
2021/09/14 10:52:34;;;;;;;0.20;0.20;;;;;;;;;;4996885;28;20048;-87
2021/09/14 10:55:07;;;;;;;0.10;0.10;;;;;;;;;;5013091;28;20093;-86
2021/09/14 10:57:39;;;;;;;0.20;0.20;;;;;;;;;;5012866;28;20096;-86
2021/09/14 11:00:07;;;;;;;0.10;0.10;;;;;;;;;;5012957;28;20045;-88
2021/09/14 11:02:33;;;;;;;0.20;0.20;;;;;;;;;;4996711;28;20128;-88
2021/09/14 11:04:59;;;;;;;0.10;0.10;;;;;;;;;;4997202;28;20056;-87
2021/09/14 11:07:25;;;;;;;0.20;0.20;;;;;;;;;;4996984;28;20049;-91
2021/09/14 11:09:55;;;;;;;0.20;0.20;;;;;;;;;;4997342;28;20049;-91
2021/09/14 11:12:21;;;;;;;0.10;0.10;;;;;;;;;;4998556;28;20042;-90
2021/09/14 11:14:47;;;;;;;0.10;0.10;;;;;;;;;;4997212;28;20133;-94
2021/09/14 11:17:27;;;;;;;0.10;0.10;;;;;;;;;;4997378;28;20095;-92
2021/09/14 11:19:54;;;;;;;0.43;0.20;;;;;;;;;;4998242;28;20038;-90
2021/09/14 11:22:30;;;;;;;0.15;0.15;;;;;;;;;;4996889;28;20477;-89
2021/09/14 11:24:56;;;;;;;0.10;0.10;;;;;;;;;;4981228;28;20042;-93
2021/09/14 11:27:22;;;;;;;0.10;0.10;;;;;;;;;;4999700;28;20053;-92
2021/09/14 11:29:48;;;;;;;0.10;0.10;;;;;;;;;;4996622;28;20520;-90
2021/09/14 11:32:15;;;;;;;0.10;0.10;;;;;;;;;;4996738;28;20568;-90
2021/09/14 11:34:41;;;;;;;0.10;0.10;;;;;;;;;;4997023;28;20370;-92
2021/09/14 11:37:06;;;;;;;0.10;0.10;;;;;;;;;;4996912;28;20038;-91
2021/09/14 11:39:36;;;;;;;0.10;0.10;;;;;;;;;;4980433;28;20048;-92
2021/09/14 11:42:02;;;;;;;0.20;0.20;;;;;;;;;;4996728;28;20048;-92
2021/09/14 11:44:28;;;;;;;0.10;0.10;;;;;;;;;;5012836;28;20050;-94
2021/09/14 11:46:55;;;;;;;0.10;0.10;;;;;;;;;;4980685;28;20101;-93
2021/09/14 11:49:27;;;;;;;0.20;0.20;;;;;;;;;;4981527;28;20064;-95
2021/09/14 11:51:59;;;;;;;0.20;0.20;;;;;;;;;;4981073;28;20053;-92
2021/09/14 11:54:27;;;;;;;0.20;0.20;;;;;;;;;;4981029;28;20050;-95
2021/09/14 11:56:56;;;;;;;0.10;0.10;;;;;;;;;;4998031;28;20402;-92
2021/09/14 11:59:22;;;;;;;0.15;0.15;;;;;;;;;;4997989;28;20116;-93
2021/09/14 12:01:49;;;;;;;0.10;0.10;;;;;;;;;;5013396;28;20034;-92
2021/09/14 12:04:16;;;;;;;0.10;0.10;;;;;;;;;;4980504;28;20034;-93
2021/09/14 12:06:41;;;;;;;0.20;0.20;;;;;;;;;;4980441;28;20046;-91
2021/09/14 12:09:11;;;;;;;0.10;0.10;;;;;;;;;;4995995;28;20046;-91
2021/09/14 12:11:39;;;;;;;0.10;0.10;;;;;;;;;;5010531;28;20475;-91
2021/09/14 12:14:06;;;;;;;0.20;0.20;;;;;;;;;;4994855;28;20147;-91
2021/09/14 12:16:36;;;;;;;0.20;0.20;;;;;;;;;;4995906;28;20077;-91
2021/09/14 12:19:02;;;;;;;0.20;0.20;;;;;;;;;;4996265;28;20134;-92
2021/09/14 12:21:28;;;;;;;0.30;0.30;;;;;;;;;;5028344;28;20042;-92
2021/09/14 12:23:54;;;;;;;0.10;0.10;;;;;;;;;;4995279;28;20073;-90
2021/09/14 12:26:24;;;;;;;0.15;0.15;;;;;;;;;;4995612;28;20045;-91
2021/09/14 12:28:51;;;;;;;0.10;0.10;;;;;;;;;;4995226;28;20120;-92
2021/09/14 12:31:17;;;;;;;0.20;0.20;;;;;;;;;;4995070;28;20141;-91
2021/09/14 12:33:43;;;;;;;0.10;0.10;;;;;;;;;;4995673;28;20085;-91
2021/09/14 12:36:09;;;;;;;0.10;0.10;;;;;;;;;;4995260;28;20041;-91
2021/09/14 12:38:36;;;;;;;0.10;0.10;;;;;;;;;;4995225;28;20046;-92
2021/09/14 12:41:02;;;;;;;0.20;0.20;;;;;;;;;;4995279;28;20092;-91
2021/09/14 12:43:28;;;;;;;0.20;0.20;;;;;;;;;;4994846;28;20077;-91
2021/09/14 12:45:54;;;;;;;0.13;0.13;;;;;;;;;;4995276;28;20100;-90
2021/09/14 12:48:20;;;;;;;0.10;0.10;;;;;;;;;;4995017;28;20037;-90
2021/09/14 12:50:46;;;;;;;0.10;0.10;;;;;;;;;;4996008;28;20042;-92
2021/09/14 12:53:12;;;;;;;0.20;0.20;;;;;;;;;;4996483;28;20132;-91
2021/09/14 12:55:38;;;;;;;0.20;0.20;;;;;;;;;;4996743;28;20088;-92
2021/09/14 12:58:04;;;;;;;0.20;0.20;;;;;;;;;;4996385;28;20045;-91
2021/09/14 13:00:30;;;;;;;0.10;0.10;;;;;;;;;;5009487;28;20042;-93
2021/09/14 13:02:57;;;;;;;0.10;0.10;;;;;;;;;;4995416;28;20142;-93
2021/09/14 13:05:25;;;;;;;0.10;0.10;;;;;;;;;;4994973;28;20481;-93
2021/09/14 13:07:51;;;;;;;0.10;0.10;;;;;;;;;;4995050;28;20445;-93
2021/09/14 13:10:17;;;;;;;0.20;0.20;;;;;;;;;;4995694;28;20041;-93
2021/09/14 13:12:51;;;;;;;0.10;0.10;;;;;;;;;;4995153;28;20108;-90
2021/09/14 13:18:01;;;;;;;0.10;0.10;;;;;;;;;;5011156;28;20401;-90
2021/09/14 13:20:27;;;;;;;0.20;0.20;;;;;;;;;;4994608;28;20040;-89
2021/09/14 13:22:54;;;;;;;0.10;0.10;;;;;;;;;;5010921;28;20120;-88
2021/09/14 13:25:21;;;;;;;0.10;0.10;;;;;;;;;;5010566;28;20056;-89
2021/09/14 13:27:47;;;;;;;0.10;0.10;;;;;;;;;;4993897;28;20042;-89
2021/09/14 13:30:13;;;;;;;0.10;0.10;;;;;;;;;;4994461;28;20053;-89
2021/09/14 13:32:39;;;;;;;0.10;0.10;;;;;;;;;;4993841;28;20041;-89
2021/09/14 13:35:06;;;;;;;0.20;0.20;;;;;;;;;;4993959;28;20089;-89
2021/09/14 13:37:32;;;;;;;0.10;0.10;;;;;;;;;;4993858;28;20393;-90
2021/09/14 13:39:58;;;;;;;0.10;0.10;;;;;;;;;;4994607;28;20049;-90
2021/09/14 13:42:25;;;;;;;0.20;0.20;;;;;;;;;;5013548;28;20033;-91
2021/09/14 13:47:18;;;;;;;0.10;0.10;;;;;;;;;;5014535;28;20470;-92
2021/09/14 13:49:44;;;;;;;0.10;0.10;;;;;;;;;;4999209;28;20046;-91
2021/09/14 13:52:11;;;;;;;0.20;0.20;;;;;;;;;;4998340;28;20088;-90
2021/09/14 13:54:37;;;;;;;0.10;0.10;;;;;;;;;;4997949;28;20053;-92
2021/09/14 13:57:03;;;;;;;0.10;0.10;;;;;;;;;;4998474;28;20065;-92
2021/09/14 13:59:29;;;;;;;0.10;0.10;;;;;;;;;;4998790;28;20046;-95
2021/09/14 14:01:55;;;;;;;0.20;0.20;;;;;;;;;;4998967;28;20042;-91
2021/09/14 14:04:21;;;;;;;0.10;0.10;;;;;;;;;;5015125;28;20044;-93
2021/09/14 14:06:51;;;;;;;0.10;0.10;;;;;;;;;;5015381;28;20044;-92
2021/09/14 14:09:17;;;;;;;0.10;0.10;;;;;;;;;;4998814;28;20052;-92
2021/09/14 14:11:43;;;;;;;0.30;0.30;;;;;;;;;;5014870;28;20042;-92
2021/09/14 14:14:09;;;;;;;0.10;0.10;;;;;;;;;;5031300;28;20048;-95
2021/09/14 14:16:35;;;;;;;0.20;0.20;;;;;;;;;;4997585;28;20081;-92
2021/09/14 14:19:01;;;;;;;0.10;0.10;;;;;;;;;;5014800;28;20097;-93
2021/09/14 14:21:27;;;;;;;0.10;0.10;;;;;;;;;;5014874;28;20095;-92
2021/09/14 14:23:54;;;;;;;0.20;0.20;;;;;;;;;;5015318;28;20440;-92
2021/09/14 14:26:22;;;;;;;0.10;0.10;;;;;;;;;;4997879;28;20088;-93
2021/09/14 14:28:48;;;;;;;0.10;0.10;;;;;;;;;;5007442;28;20090;-92
2021/09/14 14:31:14;;;;;;;0.55;0.20;;;;;;;;;;4998710;28;20034;-91
2021/09/14 14:33:40;;;;;;;0.10;0.10;;;;;;;;;;4998435;28;20129;-93
2021/09/14 14:36:06;;;;;;;0.10;0.10;;;;;;;;;;4998768;28;20081;-93
2021/09/14 14:38:40;;;;;;;0.20;0.20;;;;;;;;;;4998176;28;20034;-91
2021/09/14 14:41:06;;;;;;;0.13;0.13;;;;;;;;;;4998995;28;20038;-92
2021/09/14 14:43:32;;;;;;;0.20;0.20;;;;;;;;;;4998872;28;20394;-92
2021/09/14 14:45:58;;;;;;;0.20;0.20;;;;;;;;;;4999169;28;20046;-89
2021/09/14 14:48:24;;;;;;;0.10;0.10;;;;;;;;;;5000955;28;20073;-92
2021/09/14 14:50:50;;;;;;;0.10;0.10;;;;;;;;;;4998820;28;20092;-91
2021/09/14 14:53:16;;;;;;;0.10;0.10;;;;;;;;;;4997608;28;20046;-91
2021/09/14 14:55:42;;;;;;;0.10;0.10;;;;;;;;;;4997502;28;20048;-91
2021/09/14 14:58:08;;;;;;;0.20;0.20;;;;;;;;;;4997005;28;20136;-91
2021/09/14 15:00:34;;;;;;;0.10;0.10;;;;;;;;;;4997703;28;20073;-92
2021/09/14 15:03:00;;;;;;;0.20;0.20;;;;;;;;;;4997807;28;20056;-90
2021/09/14 15:05:26;;;;;;;0.10;0.10;;;;;;;;;;4997215;28;20396;-90
2021/09/14 15:07:52;;;;;;;0.10;0.10;;;;;;;;;;4997331;28;20045;-92
2021/09/14 15:10:19;;;;;;;0.10;0.10;;;;;;;;;;4996010;28;20064;-90
2021/09/14 15:12:45;;;;;;;0.10;0.10;;;;;;;;;;5030777;28;20044;-91
2021/09/14 15:15:12;;;;;;;0.10;0.10;;;;;;;;;;5013573;28;20038;-91
2021/09/14 15:17:42;;;;;;;0.10;0.10;;;;;;;;;;5013247;28;20101;-91
2021/09/14 15:20:10;;;;;;;0.17;0.17;;;;;;;;;;5004267;28;20356;-93
2021/09/14 15:22:36;;;;;;;0.10;0.10;;;;;;;;;;4998289;28;20042;-93
2021/09/14 15:25:02;;;;;;;0.10;0.10;;;;;;;;;;4996748;28;20049;-93
2021/09/14 15:27:28;;;;;;;0.10;0.10;;;;;;;;;;4997277;28;20038;-92
2021/09/14 15:29:54;;;;;;;0.10;0.10;;;;;;;;;;5030799;28;20077;-91
2021/09/14 15:32:20;;;;;;;0.20;0.20;;;;;;;;;;5013536;28;20044;-91
2021/09/14 15:34:46;;;;;;;0.10;0.10;;;;;;;;;;5013417;28;20428;-92
2021/09/14 15:37:13;;;;;;;0.10;0.10;;;;;;;;;;5013468;28;20050;-92
2021/09/14 15:39:43;;;;;;;0.20;0.20;;;;;;;;;;5013469;28;20057;-91
2021/09/14 15:42:13;;;;;;;0.10;0.10;;;;;;;;;;5013333;28;20092;-90
2021/09/14 15:44:42;;;;;;;0.20;0.20;;;;;;;;;;5013532;28;20042;-94
2021/09/14 15:47:12;;;;;;;0.10;0.10;;;;;;;;;;5014165;28;20049;-92